Pti Sextans — VRCS6 — position and weather

sailwx.info

Track history (hours):
 
Tides and Currents Weather Stations Pressure Air Temp Water Temp Dewpoint Dewpoint Depression Visibility Wind Speed Wind Dir Waves Ship Positions

Pti Sextans

Last reported at 2018-May-08 18:02 UTC. Time now 2018-May-22 21:30 UTC.
Position N 09°11' W 079°52'.
Warning: this ship's position is 14 days out of date.

Length 183 m; draft 11.3 m.

Type: Tanker. MMSI: 477768200.

Date/timePositionNaut miles runAvg speedWind from/ knotsBaromVisibWave heightAir tempDewpointWater temp
2018-May-08 18:02N 09°11' W 079°52'0 5.7
2018-May-08 18:00N 09°11' W 079°52'3 5.8
2018-May-08 17:26N 09°13' W 079°55'1 2.0
2018-May-08 17:00N 09°13' W 079°56'1 0.1
2018-May-08 12:22N 09°13' W 079°56'2 5.7
2018-May-08 12:00N 09°15' W 079°55'1 1.4
2018-May-08 11:25N 09°16' W 079°55'0 0.3
2018-May-08 10:55N 09°16' W 079°55'0 0.4
2018-May-08 10:28N 09°17' W 079°55'1 1.6
2018-May-08 09:53N 09°18' W 079°55'2 5.0
2018-May-08 09:30N 09°19' W 079°55'4 7.6
2018-May-08 09:00N 09°23' W 079°55'3 5.4
2018-May-08 08:30N 09°26' W 079°55'1 1.4
2018-May-08 07:58N 09°27' W 079°55'2 3.7
2018-May-08 07:30N 09°27' W 079°57'1 1.1
2018-May-08 06:58N 09°27' W 079°58'0 0.1
2018-May-08 06:28N 09°27' W 079°58'0 0.0
2018-May-08 05:58N 09°27' W 079°58'0 0.0
2018-May-08 05:30N 09°27' W 079°58'0 0.0
2018-May-08 05:00N 09°27' W 079°58'0 0.0
2018-May-08 04:30N 09°27' W 079°58'0 0.0
2018-May-08 04:00N 09°27' W 079°58'0 0.0
2018-May-08 03:30N 09°27' W 079°58'0 0.0
2018-May-08 03:00N 09°27' W 079°58'0 0.0
2018-May-08 02:30N 09°27' W 079°58'0 0.0
2018-May-08 02:00N 09°27' W 079°58'0 0.0
2018-May-08 01:30N 09°27' W 079°58'0 0.0
2018-May-08 01:00N 09°27' W 079°58'0 0.0
2018-May-08 00:30N 09°27' W 079°58'0 0.0
2018-May-08 00:00N 09°27' W 079°58'0 0.0
2018-May-07 23:30N 09°27' W 079°58'0 0.0
2018-May-07 23:00N 09°27' W 079°58'0 0.0
2018-May-07 22:30N 09°27' W 079°58'0 0.0
2018-May-07 22:00N 09°27' W 079°58'0 0.0
2018-May-07 21:28N 09°27' W 079°58'0 0.0
2018-May-07 21:00N 09°27' W 079°58'0 0.2
2018-May-07 20:29N 09°27' W 079°58'1 2.5
2018-May-07 20:00N 09°27' W 079°57'3 5.9
2018-May-07 19:30N 09°29' W 079°54'4 6.8
2018-May-07 18:55N 09°33' W 079°53'  
2018-May-03 00:19N 26°56' W 093°50'612.6
2018-May-02 23:52N 27°01' W 093°53'512.4
2018-May-02 23:30N 27°04' W 093°56'2112.5
2018-May-02 21:51N 27°22' W 094°09'512.4
2018-May-02 21:27N 27°26' W 094°12'612.4
2018-May-02 20:58N 27°31' W 094°16'612.4
2018-May-02 20:30N 27°35' W 094°20'1112.1
2018-May-02 19:36N 27°45' W 094°26'212.3
2018-May-02 19:27N 27°47' W 094°26'612.4
2018-May-02 18:59N 27°53' W 094°26'612.6
2018-May-02 18:30N 27°59' W 094°25'612.8
2018-May-02 18:00N 28°05' W 094°25'612.9
2018-May-02 17:30N 28°12' W 094°25'713.1
2018-May-02 17:00N 28°18' W 094°25'713.3
2018-May-02 16:30N 28°25' W 094°25'713.3
2018-May-02 16:00N 28°31' W 094°25'713.3
2018-May-02 15:31N 28°38' W 094°25'612.8
2018-May-02 15:00N 28°44' W 094°26'3 6.5
2018-May-02 14:30N 28°48' W 094°26'2 3.1
2018-May-02 14:00N 28°49' W 094°26'5 9.6
2018-May-02 13:30N 28°54' W 094°26'5 9.9
2018-May-02 13:00N 28°59' W 094°26'5 9.8
2018-May-02 12:30N 29°04' W 094°26'5 9.6
2018-May-02 12:00N 29°08' W 094°27'612.5
2018-May-02 11:30N 29°13' W 094°32'611.1
2018-May-02 11:00N 29°17' W 094°37'510.3
2018-May-02 10:30N 29°20' W 094°41'5 9.9
2018-May-02 10:00N 29°21' W 094°47'510.1
2018-May-02 09:30N 29°25' W 094°50'510.7
2018-May-02 09:00N 29°30' W 094°52'4 8.5
2018-May-02 08:30N 29°34' W 094°55'510.4
2018-May-02 08:00N 29°38' W 094°58'5 9.0
2018-May-02 07:30N 29°42' W 095°00'4 7.2
2018-May-02 07:00N 29°44' W 095°04'2 4.7
2018-May-02 06:30N 29°45' W 095°06'3 5.2
2018-May-02 06:00N 29°44' W 095°09'3 4.4
2018-May-02 05:25N 29°44' W 095°12'2 3.8
2018-May-02 05:00N 29°44' W 095°14'0 0.0
2018-Apr-30 16:34N 29°43' W 095°14'0 2.4
2018-Apr-30 16:28N 29°43' W 095°14'1 2.5
2018-Apr-30 16:00N 29°43' W 095°13'2 4.7
2018-Apr-30 15:30N 29°45' W 095°11'3 5.3
2018-Apr-30 15:00N 29°44' W 095°08'3 6.1
2018-Apr-30 14:30N 29°46' W 095°05'4 8.0
2018-Apr-30 14:00N 29°43' W 095°01'4 8.7
2018-Apr-30 13:30N 29°40' W 094°58'510.1
2018-Apr-30 13:00N 29°35' W 094°56'611.2
2018-Apr-30 12:30N 29°31' W 094°53'612.4
2018-Apr-30 12:00N 29°25' W 094°50'611.8
2018-Apr-30 11:30N 29°21' W 094°45'611.7
2018-Apr-30 10:59N 29°19' W 094°38'3 6.5
2018-Apr-30 10:29N 29°17' W 094°35'1 2.0
2018-Apr-30 09:57N 29°18' W 094°34'0 0.0
2018-Apr-30 09:30N 29°18' W 094°34'0 0.0
2018-Apr-30 09:00N 29°18' W 094°34'0 0.0
2018-Apr-30 08:30N 29°18' W 094°34'0 0.0
2018-Apr-30 08:00N 29°18' W 094°34'0 0.0
2018-Apr-30 07:27N 29°18' W 094°34'0 0.0
2018-Apr-30 06:57N 29°18' W 094°34'0 0.0
2018-Apr-30 06:30N 29°18' W 094°34'0 0.0
2018-Apr-30 06:00N 29°18' W 094°34'0 0.0
2018-Apr-30 05:12N 29°18' W 094°34'0 0.0
2018-Apr-30 04:57N 29°18' W 094°34'0 0.0
2018-Apr-30 04:21N 29°18' W 094°34'0 0.2
2018-Apr-30 04:00N 29°18' W 094°34'0 0.4
2018-Apr-30 03:30N 29°18' W 094°33'0 1.0
2018-Apr-30 03:00N 29°17' W 094°33'0 0.8
2018-Apr-30 02:29N 29°17' W 094°33'0 0.2
2018-Apr-30 02:00N 29°17' W 094°33'0 0.1
2018-Apr-30 01:30N 29°17' W 094°32'0 0.0
2018-Apr-30 00:54N 29°17' W 094°32'0 0.0
2018-Apr-30 00:30N 29°17' W 094°32'0 0.0
2018-Apr-30 00:00N 29°17' W 094°32'0 0.0
2018-Apr-29 23:30N 29°17' W 094°32'0 0.0
2018-Apr-29 23:00N 29°17' W 094°32'0 0.0
2018-Apr-29 22:30N 29°17' W 094°32'0 0.0
2018-Apr-29 22:00N 29°17' W 094°32'0 0.0
2018-Apr-29 21:30N 29°17' W 094°32'0 0.0
2018-Apr-29 21:00N 29°17' W 094°32'0 0.0
2018-Apr-29 19:54N 29°17' W 094°32'0 0.0
2018-Apr-29 19:30N 29°17' W 094°32'0 0.0
2018-Apr-29 18:18N 29°17' W 094°32'0 0.0
2018-Apr-29 17:54N 29°17' W 094°32'0 0.0
2018-Apr-29 17:24N 29°17' W 094°32'0 0.0
2018-Apr-29 17:00N 29°17' W 094°32'0 0.0
2018-Apr-29 16:30N 29°17' W 094°32'0 0.0
2018-Apr-29 16:00N 29°17' W 094°32'0 0.0
2018-Apr-29 15:30N 29°17' W 094°32'0 0.0
2018-Apr-29 15:00N 29°17' W 094°32'0 0.0
2018-Apr-29 14:30N 29°17' W 094°32'0 0.0
2018-Apr-29 13:54N 29°17' W 094°32'0 0.0
2018-Apr-29 13:30N 29°17' W 094°32'0 0.0
2018-Apr-29 12:15N 29°17' W 094°32'0 0.0
2018-Apr-29 11:57N 29°17' W 094°32'0 0.0
2018-Apr-29 11:24N 29°17' W 094°32'0 0.0
2018-Apr-29 11:00N 29°17' W 094°32'0 0.0
2018-Apr-29 10:24N 29°17' W 094°32'0 0.0
2018-Apr-29 10:00N 29°17' W 094°32'0 0.0
2018-Apr-29 09:30N 29°17' W 094°32'0 0.0
2018-Apr-29 08:45N 29°17' W 094°32'0 0.1
2018-Apr-29 08:30N 29°17' W 094°32'0 0.0
2018-Apr-29 07:57N 29°17' W 094°32'0 0.0
2018-Apr-29 07:27N 29°17' W 094°32'0 0.0
2018-Apr-29 06:45N 29°17' W 094°32'0 0.0
2018-Apr-29 06:30N 29°17' W 094°32'0 0.0
2018-Apr-29 05:57N 29°17' W 094°32'0 0.0
2018-Apr-29 05:27N 29°17' W 094°32'0 0.0
2018-Apr-29 05:00N 29°17' W 094°32'0 0.0
2018-Apr-29 04:24N 29°17' W 094°32'0 0.0
2018-Apr-29 04:00N 29°17' W 094°32'0 0.0
2018-Apr-29 03:30N 29°17' W 094°32'0 0.0
2018-Apr-29 03:00N 29°17' W 094°32'0 0.0
2018-Apr-29 02:30N 29°17' W 094°32'0 0.0
2018-Apr-29 02:00N 29°17' W 094°32'0 0.0
2018-Apr-29 01:27N 29°17' W 094°32'0 0.0
2018-Apr-29 01:00N 29°17' W 094°32'0 0.0
2018-Apr-29 00:30N 29°17' W 094°32'0 0.0
2018-Apr-29 00:00N 29°17' W 094°32'0 0.0
2018-Apr-28 23:18N 29°17' W 094°32'0 0.0
2018-Apr-28 23:00N 29°17' W 094°32'0 0.0
2018-Apr-28 22:30N 29°17' W 094°32'0 0.0
2018-Apr-28 22:00N 29°17' W 094°32'0 0.0
2018-Apr-28 21:30N 29°17' W 094°32'0 0.0
2018-Apr-28 20:57N 29°17' W 094°32'0 0.0
2018-Apr-28 20:27N 29°17' W 094°32'0 0.0
2018-Apr-28 20:00N 29°17' W 094°32'0 0.0
2018-Apr-28 19:30N 29°17' W 094°32'0 0.0
2018-Apr-28 19:00N 29°17' W 094°32'0 0.0
2018-Apr-28 18:30N 29°17' W 094°32'  
Track history (hours):
 
Tides and Currents Weather Stations Pressure Air Temp Water Temp Dewpoint Dewpoint Depression Visibility Wind Speed Wind Dir Waves Ship Positions

Pti Sextans

Last reported at 2018-May-08 18:02 UTC. Time now 2018-May-22 21:30 UTC.
Position N 09°11' W 079°52'.
Warning: this ship's position is 14 days out of date.

Length 183 m; draft 11.3 m.

Type: Tanker. MMSI: 477768200.

Date/timePositionNaut miles runAvg speedWind from/ knotsBaromVisibWave heightAir tempDewpointWater temp
2018-May-08 18:02N 09°11' W 079°52'0 5.7
2018-May-08 18:00N 09°11' W 079°52'3 5.8
2018-May-08 17:26N 09°13' W 079°55'1 2.0
2018-May-08 17:00N 09°13' W 079°56'1 0.1
2018-May-08 12:22N 09°13' W 079°56'2 5.7
2018-May-08 12:00N 09°15' W 079°55'1 1.4
2018-May-08 11:25N 09°16' W 079°55'0 0.3
2018-May-08 10:55N 09°16' W 079°55'0 0.4
2018-May-08 10:28N 09°17' W 079°55'1 1.6
2018-May-08 09:53N 09°18' W 079°55'2 5.0
2018-May-08 09:30N 09°19' W 079°55'4 7.6
2018-May-08 09:00N 09°23' W 079°55'3 5.4
2018-May-08 08:30N 09°26' W 079°55'1 1.4
2018-May-08 07:58N 09°27' W 079°55'2 3.7
2018-May-08 07:30N 09°27' W 079°57'1 1.1
2018-May-08 06:58N 09°27' W 079°58'0 0.1
2018-May-08 06:28N 09°27' W 079°58'0 0.0
2018-May-08 05:58N 09°27' W 079°58'0 0.0
2018-May-08 05:30N 09°27' W 079°58'0 0.0
2018-May-08 05:00N 09°27' W 079°58'0 0.0
2018-May-08 04:30N 09°27' W 079°58'0 0.0
2018-May-08 04:00N 09°27' W 079°58'0 0.0
2018-May-08 03:30N 09°27' W 079°58'0 0.0
2018-May-08 03:00N 09°27' W 079°58'0 0.0
2018-May-08 02:30N 09°27' W 079°58'0 0.0
2018-May-08 02:00N 09°27' W 079°58'0 0.0
2018-May-08 01:30N 09°27' W 079°58'0 0.0
2018-May-08 01:00N 09°27' W 079°58'0 0.0
2018-May-08 00:30N 09°27' W 079°58'0 0.0
2018-May-08 00:00N 09°27' W 079°58'0 0.0
2018-May-07 23:30N 09°27' W 079°58'0 0.0
2018-May-07 23:00N 09°27' W 079°58'0 0.0
2018-May-07 22:30N 09°27' W 079°58'0 0.0
2018-May-07 22:00N 09°27' W 079°58'0 0.0
2018-May-07 21:28N 09°27' W 079°58'0 0.0
2018-May-07 21:00N 09°27' W 079°58'0 0.2
2018-May-07 20:29N 09°27' W 079°58'1 2.5
2018-May-07 20:00N 09°27' W 079°57'3 5.9
2018-May-07 19:30N 09°29' W 079°54'4 6.8
2018-May-07 18:55N 09°33' W 079°53'  
2018-May-03 00:19N 26°56' W 093°50'612.6
2018-May-02 23:52N 27°01' W 093°53'512.4
2018-May-02 23:30N 27°04' W 093°56'2112.5
2018-May-02 21:51N 27°22' W 094°09'512.4
2018-May-02 21:27N 27°26' W 094°12'612.4
2018-May-02 20:58N 27°31' W 094°16'612.4
2018-May-02 20:30N 27°35' W 094°20'1112.1
2018-May-02 19:36N 27°45' W 094°26'212.3
2018-May-02 19:27N 27°47' W 094°26'612.4
2018-May-02 18:59N 27°53' W 094°26'612.6
2018-May-02 18:30N 27°59' W 094°25'612.8
2018-May-02 18:00N 28°05' W 094°25'612.9
2018-May-02 17:30N 28°12' W 094°25'713.1
2018-May-02 17:00N 28°18' W 094°25'713.3
2018-May-02 16:30N 28°25' W 094°25'713.3
2018-May-02 16:00N 28°31' W 094°25'713.3
2018-May-02 15:31N 28°38' W 094°25'612.8
2018-May-02 15:00N 28°44' W 094°26'3 6.5
2018-May-02 14:30N 28°48' W 094°26'2 3.1
2018-May-02 14:00N 28°49' W 094°26'5 9.6
2018-May-02 13:30N 28°54' W 094°26'5 9.9
2018-May-02 13:00N 28°59' W 094°26'5 9.8
2018-May-02 12:30N 29°04' W 094°26'5 9.6
2018-May-02 12:00N 29°08' W 094°27'612.5
2018-May-02 11:30N 29°13' W 094°32'611.1
2018-May-02 11:00N 29°17' W 094°37'510.3
2018-May-02 10:30N 29°20' W 094°41'5 9.9
2018-May-02 10:00N 29°21' W 094°47'510.1
2018-May-02 09:30N 29°25' W 094°50'510.7
2018-May-02 09:00N 29°30' W 094°52'4 8.5
2018-May-02 08:30N 29°34' W 094°55'510.4
2018-May-02 08:00N 29°38' W 094°58'5 9.0
2018-May-02 07:30N 29°42' W 095°00'4 7.2
2018-May-02 07:00N 29°44' W 095°04'2 4.7
2018-May-02 06:30N 29°45' W 095°06'3 5.2
2018-May-02 06:00N 29°44' W 095°09'3 4.4
2018-May-02 05:25N 29°44' W 095°12'2 3.8
2018-May-02 05:00N 29°44' W 095°14'0 0.0
2018-Apr-30 16:34N 29°43' W 095°14'0 2.4
2018-Apr-30 16:28N 29°43' W 095°14'1 2.5
2018-Apr-30 16:00N 29°43' W 095°13'2 4.7
2018-Apr-30 15:30N 29°45' W 095°11'3 5.3
2018-Apr-30 15:00N 29°44' W 095°08'3 6.1
2018-Apr-30 14:30N 29°46' W 095°05'4 8.0
2018-Apr-30 14:00N 29°43' W 095°01'4 8.7
2018-Apr-30 13:30N 29°40' W 094°58'510.1
2018-Apr-30 13:00N 29°35' W 094°56'611.2
2018-Apr-30 12:30N 29°31' W 094°53'612.4
2018-Apr-30 12:00N 29°25' W 094°50'611.8
2018-Apr-30 11:30N 29°21' W 094°45'611.7
2018-Apr-30 10:59N 29°19' W 094°38'3 6.5
2018-Apr-30 10:29N 29°17' W 094°35'1 2.0
2018-Apr-30 09:57N 29°18' W 094°34'0 0.0
2018-Apr-30 09:30N 29°18' W 094°34'0 0.0
2018-Apr-30 09:00N 29°18' W 094°34'0 0.0
2018-Apr-30 08:30N 29°18' W 094°34'0 0.0
2018-Apr-30 08:00N 29°18' W 094°34'0 0.0
2018-Apr-30 07:27N 29°18' W 094°34'0 0.0
2018-Apr-30 06:57N 29°18' W 094°34'0 0.0
2018-Apr-30 06:30N 29°18' W 094°34'0 0.0
2018-Apr-30 06:00N 29°18' W 094°34'0 0.0
2018-Apr-30 05:12N 29°18' W 094°34'0 0.0
2018-Apr-30 04:57N 29°18' W 094°34'0 0.0
2018-Apr-30 04:21N 29°18' W 094°34'0 0.2
2018-Apr-30 04:00N 29°18' W 094°34'0 0.4
2018-Apr-30 03:30N 29°18' W 094°33'0 1.0
2018-Apr-30 03:00N 29°17' W 094°33'0 0.8
2018-Apr-30 02:29N 29°17' W 094°33'0 0.2
2018-Apr-30 02:00N 29°17' W 094°33'0 0.1
2018-Apr-30 01:30N 29°17' W 094°32'0 0.0
2018-Apr-30 00:54N 29°17' W 094°32'0 0.0
2018-Apr-30 00:30N 29°17' W 094°32'0 0.0
2018-Apr-30 00:00N 29°17' W 094°32'0 0.0
2018-Apr-29 23:30N 29°17' W 094°32'0 0.0
2018-Apr-29 23:00N 29°17' W 094°32'0 0.0
2018-Apr-29 22:30N 29°17' W 094°32'0 0.0
2018-Apr-29 22:00N 29°17' W 094°32'0 0.0
2018-Apr-29 21:30N 29°17' W 094°32'0 0.0
2018-Apr-29 21:00N 29°17' W 094°32'0 0.0
2018-Apr-29 19:54N 29°17' W 094°32'0 0.0
2018-Apr-29 19:30N 29°17' W 094°32'0 0.0
2018-Apr-29 18:18N 29°17' W 094°32'0 0.0
2018-Apr-29 17:54N 29°17' W 094°32'0 0.0
2018-Apr-29 17:24N 29°17' W 094°32'0 0.0
2018-Apr-29 17:00N 29°17' W 094°32'0 0.0
2018-Apr-29 16:30N 29°17' W 094°32'0 0.0
2018-Apr-29 16:00N 29°17' W 094°32'0 0.0
2018-Apr-29 15:30N 29°17' W 094°32'0 0.0
2018-Apr-29 15:00N 29°17' W 094°32'0 0.0
2018-Apr-29 14:30N 29°17' W 094°32'0 0.0
2018-Apr-29 13:54N 29°17' W 094°32'0 0.0
2018-Apr-29 13:30N 29°17' W 094°32'0 0.0
2018-Apr-29 12:15N 29°17' W 094°32'0 0.0
2018-Apr-29 11:57N 29°17' W 094°32'0 0.0
2018-Apr-29 11:24N 29°17' W 094°32'0 0.0
2018-Apr-29 11:00N 29°17' W 094°32'0 0.0
2018-Apr-29 10:24N 29°17' W 094°32'0 0.0
2018-Apr-29 10:00N 29°17' W 094°32'0 0.0
2018-Apr-29 09:30N 29°17' W 094°32'0 0.0
2018-Apr-29 08:45N 29°17' W 094°32'0 0.1
2018-Apr-29 08:30N 29°17' W 094°32'0 0.0
2018-Apr-29 07:57N 29°17' W 094°32'0 0.0
2018-Apr-29 07:27N 29°17' W 094°32'0 0.0
2018-Apr-29 06:45N 29°17' W 094°32'0 0.0
2018-Apr-29 06:30N 29°17' W 094°32'0 0.0
2018-Apr-29 05:57N 29°17' W 094°32'0 0.0
2018-Apr-29 05:27N 29°17' W 094°32'0 0.0
2018-Apr-29 05:00N 29°17' W 094°32'0 0.0
2018-Apr-29 04:24N 29°17' W 094°32'0 0.0
2018-Apr-29 04:00N 29°17' W 094°32'0 0.0
2018-Apr-29 03:30N 29°17' W 094°32'0 0.0
2018-Apr-29 03:00N 29°17' W 094°32'0 0.0
2018-Apr-29 02:30N 29°17' W 094°32'0 0.0
2018-Apr-29 02:00N 29°17' W 094°32'0 0.0
2018-Apr-29 01:27N 29°17' W 094°32'0 0.0
2018-Apr-29 01:00N 29°17' W 094°32'0 0.0
2018-Apr-29 00:30N 29°17' W 094°32'0 0.0
2018-Apr-29 00:00N 29°17' W 094°32'0 0.0
2018-Apr-28 23:18N 29°17' W 094°32'0 0.0
2018-Apr-28 23:00N 29°17' W 094°32'0 0.0
2018-Apr-28 22:30N 29°17' W 094°32'0 0.0
2018-Apr-28 22:00N 29°17' W 094°32'0 0.0
2018-Apr-28 21:30N 29°17' W 094°32'0 0.0
2018-Apr-28 20:57N 29°17' W 094°32'0 0.0
2018-Apr-28 20:27N 29°17' W 094°32'0 0.0
2018-Apr-28 20:00N 29°17' W 094°32'0 0.0
2018-Apr-28 19:30N 29°17' W 094°32'0 0.0
2018-Apr-28 19:00N 29°17' W 094°32'0 0.0
2018-Apr-28 18:30N 29°17' W 094°32'  

Dump ship's entire track history